createdAt,value
2017-09-05T00:00:11.178Z,14.90
2017-09-05T00:02:39.464Z,14.90
2017-09-05T00:05:07.027Z,14.90
2017-09-05T00:07:35.345Z,14.90
2017-09-05T00:10:05.566Z,14.80
2017-09-05T00:15:43.164Z,14.70
2017-09-05T00:18:11.584Z,14.70
2017-09-05T00:20:41.624Z,14.70
2017-09-05T00:23:09.217Z,14.70
2017-09-05T00:25:36.782Z,14.80
2017-09-05T00:28:04.448Z,14.80
2017-09-05T00:30:32.029Z,14.90
2017-09-05T00:32:59.965Z,14.90
2017-09-05T00:35:27.559Z,14.90
2017-09-05T00:37:55.138Z,14.90
2017-09-05T00:40:22.746Z,14.90
2017-09-05T00:42:50.336Z,14.90
2017-09-05T00:45:17.935Z,14.90
2017-09-05T00:47:45.514Z,14.90
2017-09-05T00:50:13.426Z,14.90
2017-09-05T00:52:40.978Z,14.90
2017-09-05T00:55:08.604Z,14.90
2017-09-05T00:57:36.205Z,14.90
2017-09-05T01:00:03.770Z,14.80
2017-09-05T01:02:31.344Z,14.80
2017-09-05T01:04:58.915Z,14.80
2017-09-05T01:07:26.847Z,14.80
2017-09-05T01:09:54.571Z,14.80
2017-09-05T01:12:22.161Z,14.80
2017-09-05T01:14:49.798Z,14.80
2017-09-05T01:17:17.401Z,14.80
2017-09-05T01:19:45.136Z,14.80
2017-09-05T01:22:12.704Z,14.80
2017-09-05T01:24:40.557Z,14.80
2017-09-05T01:27:08.140Z,14.90
2017-09-05T01:29:35.756Z,14.90
2017-09-05T01:32:03.368Z,14.90
2017-09-05T01:34:30.931Z,14.90
2017-09-05T01:36:58.529Z,15.00
2017-09-05T01:39:26.908Z,15.10
2017-09-05T01:41:54.806Z,15.10
2017-09-05T01:44:22.379Z,15.00
2017-09-05T01:46:49.946Z,15.00
2017-09-05T01:49:17.547Z,14.90
2017-09-05T01:51:45.132Z,14.90
2017-09-05T01:54:13.283Z,14.90
2017-09-05T01:56:41.584Z,14.90
2017-09-05T01:59:09.543Z,14.90
2017-09-05T02:01:37.138Z,14.80
2017-09-05T02:04:04.769Z,14.90
2017-09-05T02:06:32.371Z,14.90
2017-09-05T02:08:59.955Z,14.90
2017-09-05T02:11:27.560Z,14.80
2017-09-05T02:13:55.144Z,14.80
2017-09-05T02:16:23.003Z,14.90
2017-09-05T02:18:50.607Z,14.90
2017-09-05T02:21:18.209Z,14.80
2017-09-05T02:23:45.824Z,14.80
2017-09-05T02:26:13.392Z,14.70
2017-09-05T02:28:40.972Z,14.70
2017-09-05T02:31:08.558Z,14.70
2017-09-05T02:33:36.619Z,14.70
2017-09-05T02:36:04.220Z,14.70
2017-09-05T02:38:31.836Z,14.70
2017-09-05T02:40:59.455Z,14.70
2017-09-05T02:43:27.023Z,14.70
2017-09-05T02:45:54.619Z,14.80
2017-09-05T02:48:22.211Z,14.70
2017-09-05T02:50:50.082Z,14.70
2017-09-05T02:53:17.689Z,14.70
2017-09-05T02:55:45.259Z,14.70
2017-09-05T02:58:12.861Z,14.70
2017-09-05T03:00:40.463Z,14.70
2017-09-05T03:03:08.068Z,14.70
2017-09-05T03:05:35.634Z,14.70
2017-09-05T03:08:03.496Z,14.70
2017-09-05T03:10:31.107Z,14.70
2017-09-05T03:12:58.681Z,14.60
2017-09-05T03:15:27.044Z,14.70
2017-09-05T03:17:54.612Z,14.70
2017-09-05T03:20:22.246Z,14.70
2017-09-05T03:22:50.731Z,14.70
2017-09-05T03:25:18.647Z,14.70
2017-09-05T03:27:46.222Z,14.70
2017-09-05T03:30:13.783Z,14.60
2017-09-05T03:32:41.370Z,14.60
2017-09-05T03:35:08.928Z,14.60
2017-09-05T03:37:37.291Z,14.50
2017-09-05T03:40:04.864Z,14.50
2017-09-05T03:42:32.918Z,14.50
2017-09-05T03:45:00.495Z,14.40
2017-09-05T03:47:28.814Z,14.40
2017-09-05T03:49:56.377Z,14.30
2017-09-05T03:52:23.963Z,14.30
2017-09-05T03:54:51.549Z,14.40
2017-09-05T03:57:19.897Z,14.30
2017-09-05T03:59:47.456Z,14.30
2017-09-05T04:02:15.055Z,14.30
2017-09-05T04:04:43.200Z,14.30
2017-09-05T04:07:11.064Z,14.30
2017-09-05T04:09:38.648Z,14.30
2017-09-05T04:12:06.256Z,14.30
2017-09-05T04:14:33.865Z,14.30
2017-09-05T04:17:01.444Z,14.40
2017-09-05T04:19:29.335Z,14.30
2017-09-05T04:21:56.953Z,14.30
2017-09-05T04:24:24.547Z,14.20
2017-09-05T04:26:52.579Z,14.20
2017-09-05T04:29:20.164Z,14.20
2017-09-05T04:31:47.766Z,14.10
2017-09-05T04:34:15.389Z,14.20
2017-09-05T04:36:43.379Z,14.10
2017-09-05T04:39:10.953Z,14.10
2017-09-05T04:41:38.548Z,14.10
2017-09-05T04:44:06.159Z,14.10
2017-09-05T04:46:33.757Z,14.00
2017-09-05T04:49:01.674Z,14.00
2017-09-05T04:51:29.233Z,14.00
2017-09-05T04:53:56.834Z,13.90
2017-09-05T04:56:25.266Z,13.90
2017-09-05T04:58:52.857Z,13.80
2017-09-05T05:01:20.457Z,13.80
2017-09-05T05:03:48.034Z,13.80
2017-09-05T05:06:15.931Z,13.70
2017-09-05T05:08:43.518Z,13.70
2017-09-05T05:11:11.738Z,13.80
2017-09-05T05:13:39.357Z,13.80
2017-09-05T05:16:06.949Z,13.80
2017-09-05T05:18:34.564Z,13.90
2017-09-05T05:21:02.165Z,13.90
2017-09-05T05:23:30.087Z,14.00
2017-09-05T05:25:57.671Z,14.10
2017-09-05T05:28:25.249Z,14.20
2017-09-05T05:30:52.815Z,14.30
2017-09-05T05:33:20.384Z,14.30
2017-09-05T05:35:48.121Z,14.40
2017-09-05T05:38:15.708Z,14.50
2017-09-05T05:40:43.582Z,14.50
2017-09-05T05:43:11.167Z,14.60
2017-09-05T05:45:38.767Z,14.70
2017-09-05T05:48:06.363Z,14.80
2017-09-05T05:50:33.958Z,14.80
2017-09-05T05:53:01.555Z,14.80
2017-09-05T05:55:29.899Z,14.90
2017-09-05T05:57:57.771Z,14.90
2017-09-05T06:00:25.364Z,15.00
2017-09-05T06:02:52.971Z,15.20
2017-09-05T06:05:20.561Z,15.30
2017-09-05T06:07:48.133Z,15.50
2017-09-05T06:10:15.735Z,15.50
2017-09-05T06:12:43.312Z,15.60
2017-09-05T06:15:10.933Z,15.70
2017-09-05T06:17:38.849Z,15.70
2017-09-05T06:20:06.759Z,16.00
2017-09-05T06:22:34.376Z,16.30
2017-09-05T06:25:01.954Z,16.50
2017-09-05T06:27:29.568Z,16.80
2017-09-05T06:29:57.153Z,18.70
2017-09-05T06:32:24.772Z,20.00
2017-09-05T06:34:52.359Z,20.00
2017-09-05T06:37:20.312Z,19.70
2017-09-05T06:39:47.900Z,18.90
2017-09-05T06:42:15.471Z,18.40
2017-09-05T06:44:43.067Z,18.00
2017-09-05T06:47:10.630Z,17.70
2017-09-05T06:49:38.234Z,17.40
2017-09-05T06:52:05.811Z,17.50
2017-09-05T06:54:33.414Z,17.60
2017-09-05T06:57:01.000Z,17.50
2017-09-05T06:59:28.940Z,17.40
2017-09-05T07:01:56.594Z,17.70
2017-09-05T07:04:24.245Z,19.80
2017-09-05T07:06:51.852Z,21.30
2017-09-05T07:09:19.466Z,21.70
2017-09-05T07:11:47.482Z,22.10
2017-09-05T07:14:15.060Z,22.80
2017-09-05T07:16:42.641Z,23.70
2017-09-05T07:19:11.073Z,23.90
2017-09-05T07:21:38.656Z,23.80
2017-09-05T07:24:06.319Z,23.10
2017-09-05T07:26:33.933Z,22.50
2017-09-05T07:29:01.846Z,21.80
2017-09-05T07:31:29.455Z,21.70
2017-09-05T07:33:57.050Z,22.10
2017-09-05T07:36:24.677Z,21.90
2017-09-05T07:38:52.248Z,22.30
2017-09-05T07:41:20.222Z,22.50
2017-09-05T07:43:47.839Z,21.70
2017-09-05T07:46:15.420Z,21.40
2017-09-05T07:48:43.018Z,21.90
2017-09-05T07:51:10.600Z,22.40
2017-09-05T07:53:38.200Z,22.40
2017-09-05T07:56:05.820Z,22.70
2017-09-05T07:58:33.757Z,22.80
2017-09-05T08:01:01.350Z,22.60
2017-09-05T08:03:28.927Z,22.80
2017-09-05T08:05:57.290Z,23.20
2017-09-05T08:08:24.889Z,23.10
2017-09-05T08:10:52.515Z,23.70
2017-09-05T08:13:20.128Z,24.30
2017-09-05T08:15:48.029Z,24.50
2017-09-05T08:18:15.623Z,25.60
2017-09-05T08:20:43.191Z,26.30
2017-09-05T08:23:10.791Z,25.40
2017-09-05T08:25:38.365Z,24.80
2017-09-05T08:28:05.958Z,24.80
2017-09-05T08:30:33.533Z,24.70
2017-09-05T08:33:01.437Z,24.50
2017-09-05T08:35:29.030Z,24.30
2017-09-05T08:37:56.608Z,23.80
2017-09-05T08:40:24.270Z,23.80
2017-09-05T08:42:51.846Z,23.90
2017-09-05T08:45:19.448Z,24.20
2017-09-05T08:47:47.055Z,26.00
2017-09-05T08:50:14.881Z,28.40
2017-09-05T08:52:42.470Z,28.50
2017-09-05T08:55:10.105Z,29.60
2017-09-05T08:57:37.702Z,32.50
2017-09-05T09:00:05.284Z,34.20
2017-09-05T09:02:32.879Z,35.20
2017-09-05T09:05:00.443Z,34.60
2017-09-05T09:07:28.405Z,33.40
2017-09-05T09:09:56.002Z,33.10
2017-09-05T09:12:23.583Z,33.40
2017-09-05T09:14:51.231Z,33.80
2017-09-05T09:17:18.809Z,36.20
2017-09-05T09:19:46.441Z,37.70
2017-09-05T09:22:14.049Z,38.50
2017-09-05T09:24:42.020Z,39.90
2017-09-05T09:27:09.602Z,41.10
2017-09-05T09:29:37.174Z,39.20
2017-09-05T09:32:05.578Z,35.80
2017-09-05T09:34:33.165Z,35.70
2017-09-05T09:37:00.776Z,36.40
2017-09-05T09:39:28.370Z,37.10
2017-09-05T09:41:56.832Z,37.00
2017-09-05T09:44:24.507Z,38.10
2017-09-05T09:46:52.114Z,39.30
2017-09-05T09:49:20.041Z,39.40
2017-09-05T09:51:47.630Z,39.60
2017-09-05T09:54:15.244Z,38.00
2017-09-05T09:56:42.829Z,36.70
2017-09-05T09:59:10.698Z,36.10
2017-09-05T10:01:38.259Z,34.90
2017-09-05T10:04:05.860Z,32.70
2017-09-05T10:06:34.245Z,31.80
2017-09-05T10:09:01.818Z,31.70
2017-09-05T10:11:29.419Z,32.60
2017-09-05T10:13:57.012Z,32.30
2017-09-05T10:16:24.889Z,30.40
2017-09-05T10:18:53.233Z,31.10
2017-09-05T10:21:20.825Z,31.00
2017-09-05T10:23:49.192Z,31.00
2017-09-05T10:26:16.770Z,30.90
2017-09-05T10:28:45.407Z,31.40
2017-09-05T10:31:13.001Z,31.40
2017-09-05T10:33:40.934Z,32.00
2017-09-05T10:36:08.535Z,31.80
2017-09-05T10:38:36.163Z,31.80
2017-09-05T10:41:03.761Z,32.50
2017-09-05T10:43:31.344Z,32.50
2017-09-05T10:45:59.007Z,31.50
2017-09-05T10:48:26.592Z,30.90
2017-09-05T10:50:54.567Z,31.20
2017-09-05T10:53:22.150Z,30.60
2017-09-05T10:55:49.732Z,30.30
2017-09-05T10:58:17.322Z,31.00
2017-09-05T11:00:44.926Z,30.70
2017-09-05T11:03:12.531Z,29.80
2017-09-05T11:05:41.251Z,29.80
2017-09-05T11:08:09.177Z,30.30
2017-09-05T11:10:36.769Z,30.20
2017-09-05T11:13:04.358Z,30.50
2017-09-05T11:15:32.300Z,30.80
2017-09-05T11:17:59.887Z,30.50
2017-09-05T11:20:27.807Z,30.80
2017-09-05T11:22:55.382Z,31.70
2017-09-05T11:25:22.955Z,32.20
2017-09-05T11:27:50.556Z,32.50
2017-09-05T11:30:18.135Z,32.00
2017-09-05T11:32:46.549Z,31.90
2017-09-05T11:35:14.138Z,31.40
2017-09-05T11:37:42.062Z,30.10
2017-09-05T11:40:09.660Z,29.80
2017-09-05T11:42:37.239Z,28.80
2017-09-05T11:45:04.832Z,28.20
2017-09-05T11:47:32.402Z,28.50
2017-09-05T11:50:00.056Z,28.70
2017-09-05T11:52:27.662Z,28.70
2017-09-05T11:54:55.609Z,28.70
2017-09-05T11:57:23.195Z,28.70
2017-09-05T11:59:50.769Z,29.30
2017-09-05T12:02:18.388Z,29.80
2017-09-05T12:04:46.036Z,29.70
2017-09-05T12:07:13.908Z,30.00
2017-09-05T12:09:41.514Z,29.30
2017-09-05T12:12:09.098Z,28.70
2017-09-05T12:14:36.703Z,28.80
2017-09-05T12:17:04.530Z,28.60
2017-09-05T12:19:32.184Z,27.90
2017-09-05T12:21:59.752Z,28.10
2017-09-05T12:24:27.636Z,28.00
2017-09-05T12:26:55.233Z,27.50
2017-09-05T12:29:22.832Z,26.60
2017-09-05T12:31:50.452Z,26.20
2017-09-05T12:34:18.014Z,26.60
2017-09-05T12:36:45.623Z,26.80
2017-09-05T12:39:13.225Z,27.10
2017-09-05T12:41:41.189Z,26.70
2017-09-05T12:44:08.812Z,26.40
2017-09-05T12:46:36.395Z,25.50
2017-09-05T12:49:04.086Z,25.40
2017-09-05T12:51:32.443Z,24.80
2017-09-05T12:54:00.894Z,24.80
2017-09-05T12:56:28.546Z,24.70
2017-09-05T12:58:56.155Z,24.50
2017-09-05T13:01:24.527Z,24.20
2017-09-05T13:03:52.120Z,24.20
2017-09-05T13:06:20.523Z,24.40
2017-09-05T13:08:48.106Z,24.40
2017-09-05T13:11:15.701Z,24.60
2017-09-05T13:13:43.570Z,25.00
2017-09-05T13:16:11.152Z,25.40
2017-09-05T13:18:39.022Z,25.90
2017-09-05T13:21:06.597Z,26.20
2017-09-05T13:23:34.185Z,26.60
2017-09-05T13:26:01.783Z,26.90
2017-09-05T13:28:29.371Z,27.30
2017-09-05T13:30:57.234Z,28.00
2017-09-05T13:33:24.858Z,28.20
2017-09-05T13:35:52.425Z,28.60
2017-09-05T13:38:20.801Z,28.90
2017-09-05T13:40:48.386Z,28.90
2017-09-05T13:43:16.008Z,28.70
2017-09-05T13:45:43.578Z,28.50
2017-09-05T13:48:12.226Z,27.20
2017-09-05T13:50:39.813Z,27.20
2017-09-05T13:53:07.378Z,27.00
2017-09-05T13:55:34.998Z,27.10
2017-09-05T13:58:02.573Z,26.80
2017-09-05T14:00:30.205Z,26.30
2017-09-05T14:02:57.785Z,26.20
2017-09-05T14:05:25.742Z,25.90
2017-09-05T14:07:53.357Z,25.70
2017-09-05T14:10:20.926Z,25.60
2017-09-05T14:12:48.633Z,25.50
2017-09-05T14:15:16.214Z,25.20
2017-09-05T14:17:44.106Z,24.90
2017-09-05T14:20:11.693Z,24.70
2017-09-05T14:22:40.206Z,24.80
2017-09-05T14:25:07.783Z,24.80
2017-09-05T14:27:35.367Z,24.60
2017-09-05T14:30:02.949Z,24.60
2017-09-05T14:32:30.523Z,24.50
2017-09-05T14:34:58.385Z,24.60
2017-09-05T14:37:26.017Z,24.60
2017-09-05T14:39:53.613Z,24.80
2017-09-05T14:42:21.206Z,24.90
2017-09-05T14:44:48.809Z,25.00
2017-09-05T14:47:16.440Z,25.00
2017-09-05T14:49:44.029Z,25.20
2017-09-05T14:52:12.738Z,25.50
2017-09-05T14:54:40.316Z,25.60
2017-09-05T14:57:07.881Z,25.60
2017-09-05T14:59:35.612Z,25.50
2017-09-05T15:02:03.224Z,25.40
2017-09-05T15:04:30.838Z,25.40
2017-09-05T15:06:58.418Z,25.30
2017-09-05T15:09:26.297Z,25.50
2017-09-05T15:11:53.874Z,25.60
2017-09-05T15:14:21.681Z,25.70
2017-09-05T15:16:50.321Z,25.80
2017-09-05T15:19:17.927Z,25.90
2017-09-05T15:21:45.831Z,25.80
2017-09-05T15:24:13.412Z,26.00
2017-09-05T15:26:41.010Z,26.20
2017-09-05T15:29:08.621Z,26.30
2017-09-05T15:31:36.243Z,26.30
2017-09-05T15:34:03.839Z,26.30
2017-09-05T15:36:32.263Z,26.00
2017-09-05T15:39:00.379Z,25.80
2017-09-05T15:41:27.952Z,25.70
2017-09-05T15:43:55.529Z,25.70
2017-09-05T15:46:23.155Z,25.60
2017-09-05T15:48:50.734Z,25.60
2017-09-05T15:51:18.401Z,25.50
2017-09-05T15:53:45.993Z,25.50
2017-09-05T15:56:13.980Z,25.40
2017-09-05T15:58:41.642Z,25.20
2017-09-05T16:01:10.030Z,25.00
2017-09-05T16:03:37.671Z,25.00
2017-09-05T16:06:05.271Z,24.90
2017-09-05T16:08:32.935Z,24.70
2017-09-05T16:11:00.557Z,24.70
2017-09-05T16:13:28.557Z,24.50
2017-09-05T16:15:56.156Z,24.40
2017-09-05T16:18:23.744Z,24.30
2017-09-05T16:20:51.368Z,24.30
2017-09-05T16:23:20.470Z,24.20
2017-09-05T16:25:48.405Z,24.20
2017-09-05T16:28:15.980Z,24.20
2017-09-05T16:30:43.559Z,24.20
2017-09-05T16:33:11.182Z,24.20
2017-09-05T16:35:38.839Z,24.40
2017-09-05T16:38:06.796Z,24.50
2017-09-05T16:40:35.186Z,24.70
2017-09-05T16:43:02.785Z,24.80
2017-09-05T16:45:30.417Z,24.80
2017-09-05T16:47:58.643Z,24.80
2017-09-05T16:50:26.527Z,24.70
2017-09-05T16:52:54.097Z,24.60
2017-09-05T16:55:21.696Z,24.50
2017-09-05T16:57:49.297Z,24.50
2017-09-05T17:00:16.902Z,24.40
2017-09-05T17:02:44.516Z,24.40
2017-09-05T17:05:12.139Z,24.20
2017-09-05T17:07:40.907Z,24.10
2017-09-05T17:10:08.534Z,24.00
2017-09-05T17:12:36.155Z,23.90
2017-09-05T17:15:03.758Z,23.80
2017-09-05T17:17:31.845Z,23.80
2017-09-05T17:20:01.261Z,23.70
2017-09-05T17:22:28.894Z,23.60
2017-09-05T17:24:57.675Z,23.60
2017-09-05T17:27:25.357Z,23.60
2017-09-05T17:29:53.104Z,23.60
2017-09-05T17:32:20.837Z,23.50
2017-09-05T17:34:48.531Z,23.50
2017-09-05T17:37:16.811Z,23.40
2017-09-05T17:39:47.143Z,23.30
2017-09-05T17:42:14.856Z,23.20
2017-09-05T17:44:42.460Z,23.10
2017-09-05T17:47:10.035Z,23.10
2017-09-05T17:49:37.899Z,22.90
2017-09-05T17:52:05.499Z,22.90
2017-09-05T17:54:33.130Z,22.80
2017-09-05T17:57:00.761Z,22.80
2017-09-05T17:59:28.386Z,22.80
2017-09-05T18:01:56.411Z,22.80
2017-09-05T18:04:24.139Z,22.80
2017-09-05T18:06:51.740Z,22.50
2017-09-05T18:09:19.742Z,22.40
2017-09-05T18:11:47.483Z,22.20
2017-09-05T18:14:15.298Z,22.00
2017-09-05T18:16:42.890Z,21.90
2017-09-05T18:19:10.997Z,21.80
2017-09-05T18:21:38.837Z,21.80
2017-09-05T18:24:06.525Z,21.70
2017-09-05T18:26:34.548Z,21.70
2017-09-05T18:29:03.217Z,21.60
2017-09-05T18:31:43.819Z,21.60
2017-09-05T18:34:11.648Z,21.50
2017-09-05T18:36:39.289Z,21.40
2017-09-05T18:39:06.953Z,21.30
2017-09-05T18:41:34.531Z,21.20
2017-09-05T18:44:02.203Z,21.10
2017-09-05T18:46:29.862Z,21.00
2017-09-05T18:48:58.355Z,20.90
2017-09-05T18:51:26.058Z,20.90
2017-09-05T18:53:53.817Z,20.90
2017-09-05T18:56:21.761Z,20.90
2017-09-05T18:58:49.362Z,20.70
2017-09-05T19:01:16.982Z,20.60
2017-09-05T19:03:44.571Z,20.50
2017-09-05T19:06:12.442Z,20.30
2017-09-05T19:08:40.048Z,20.20
2017-09-05T19:11:07.664Z,20.10
2017-09-05T19:13:35.456Z,20.00
2017-09-05T19:16:03.093Z,20.10
2017-09-05T19:18:30.992Z,20.00
2017-09-05T19:20:58.594Z,20.10
2017-09-05T19:23:26.178Z,20.00
2017-09-05T19:25:53.794Z,20.00
2017-09-05T19:28:21.399Z,20.00
2017-09-05T19:30:49.111Z,20.00
2017-09-05T19:33:16.734Z,20.00
2017-09-05T19:35:44.872Z,20.00
2017-09-05T19:38:12.595Z,20.00
2017-09-05T19:40:40.289Z,20.00
2017-09-05T19:43:07.922Z,20.00
2017-09-05T19:45:35.489Z,20.10
2017-09-05T19:48:03.124Z,20.10
2017-09-05T19:50:31.501Z,20.10
2017-09-05T19:52:59.630Z,20.00
2017-09-05T19:55:27.250Z,20.00
2017-09-05T19:57:54.836Z,19.90
2017-09-05T20:00:22.591Z,19.90
2017-09-05T20:02:50.239Z,19.80
2017-09-05T20:05:17.883Z,19.80
2017-09-05T20:07:45.484Z,19.80
2017-09-05T20:10:13.398Z,19.70
2017-09-05T20:12:41.109Z,19.70
2017-09-05T20:15:09.444Z,19.70
2017-09-05T20:17:37.068Z,19.70
2017-09-05T20:20:04.674Z,19.70
2017-09-05T20:22:32.337Z,19.70
2017-09-05T20:24:59.935Z,19.70
2017-09-05T20:27:27.886Z,19.70
2017-09-05T20:29:55.510Z,19.60
2017-09-05T20:32:23.159Z,19.60
2017-09-05T20:34:50.762Z,19.50
2017-09-05T20:37:18.361Z,19.40
2017-09-05T20:39:46.039Z,19.30
2017-09-05T20:42:13.631Z,19.30
2017-09-05T20:44:41.520Z,19.30
2017-09-05T20:47:09.158Z,19.30
2017-09-05T20:49:36.761Z,19.20
2017-09-05T20:52:04.547Z,19.10
2017-09-05T20:54:32.161Z,19.00
2017-09-05T20:56:59.772Z,18.90
2017-09-05T20:59:28.516Z,18.70
2017-09-05T21:01:56.130Z,18.60
2017-09-05T21:04:23.739Z,18.60
2017-09-05T21:06:51.641Z,18.50
2017-09-05T21:09:20.033Z,18.30
2017-09-05T21:11:47.620Z,18.30
2017-09-05T21:14:15.258Z,18.20
2017-09-05T21:16:42.875Z,18.10
2017-09-05T21:19:10.566Z,18.00
2017-09-05T21:21:38.182Z,18.00
2017-09-05T21:24:06.154Z,17.90
2017-09-05T21:26:33.714Z,17.90
2017-09-05T21:29:01.276Z,17.90
2017-09-05T21:31:28.890Z,17.80
2017-09-05T21:33:56.489Z,17.80
2017-09-05T21:36:24.101Z,17.90
2017-09-05T21:38:51.848Z,17.90
2017-09-05T21:41:19.769Z,17.90
2017-09-05T21:43:47.409Z,17.80
2017-09-05T21:46:15.021Z,17.80
2017-09-05T21:48:42.606Z,17.80
2017-09-05T21:51:10.267Z,17.70
2017-09-05T21:53:38.186Z,17.60
2017-09-05T21:56:05.793Z,17.60
2017-09-05T21:58:33.376Z,17.50
2017-09-05T22:01:01.304Z,17.50
2017-09-05T22:03:28.908Z,17.50
2017-09-05T22:05:56.502Z,17.50
2017-09-05T22:08:24.129Z,17.50
2017-09-05T22:10:51.740Z,17.50
2017-09-05T22:13:20.130Z,17.80
2017-09-05T22:15:47.737Z,17.70
2017-09-05T22:18:20.948Z,17.90
2017-09-05T22:20:54.126Z,17.90
2017-09-05T22:23:22.478Z,17.90
2017-09-05T22:25:55.650Z,17.90
2017-09-05T22:28:30.106Z,18.00
2017-09-05T22:30:57.720Z,18.00
2017-09-05T22:33:25.312Z,18.00
2017-09-05T22:35:52.932Z,18.00
2017-09-05T22:38:21.260Z,17.90
2017-09-05T22:40:48.866Z,17.90
2017-09-05T22:43:16.533Z,17.90
2017-09-05T22:45:44.130Z,17.90
2017-09-05T22:48:11.725Z,17.90
2017-09-05T22:50:39.321Z,18.00
2017-09-05T22:53:07.388Z,18.00
2017-09-05T22:55:35.006Z,18.00
2017-09-05T22:58:02.603Z,18.10
2017-09-05T23:00:30.199Z,18.10
2017-09-05T23:02:57.782Z,18.20
2017-09-05T23:05:25.404Z,18.20
2017-09-05T23:07:52.983Z,18.30
2017-09-05T23:10:20.615Z,18.40
2017-09-05T23:12:48.544Z,18.50
2017-09-05T23:15:16.122Z,18.50
2017-09-05T23:17:44.077Z,18.60
2017-09-05T23:20:11.660Z,18.60
2017-09-05T23:22:39.303Z,18.60
2017-09-05T23:25:06.910Z,18.60
2017-09-05T23:27:34.504Z,18.60
2017-09-05T23:30:02.484Z,18.60
2017-09-05T23:32:30.077Z,18.70
2017-09-05T23:34:57.659Z,18.70
2017-09-05T23:37:25.252Z,18.80
2017-09-05T23:39:52.846Z,18.80
2017-09-05T23:42:21.236Z,18.80
2017-09-05T23:44:49.590Z,18.70
2017-09-05T23:47:17.164Z,18.70
2017-09-05T23:49:45.517Z,18.40
2017-09-05T23:52:13.100Z,18.40
2017-09-05T23:54:40.705Z,18.40
2017-09-05T23:57:08.287Z,18.30
2017-09-05T23:59:35.871Z,18.30
